sensor_id;sensor_type;location;lat;lon;timestamp;P1;durP1;ratioP1;P2;durP2;ratioP2
5279;SDS011;2663;53.588;10.010;2023-07-02T00:02:18;8.93;;;2.20;;
5279;SDS011;2663;53.588;10.010;2023-07-02T00:04:46;4.67;;;2.83;;
5279;SDS011;2663;53.588;10.010;2023-07-02T00:07:13;8.43;;;2.30;;
5279;SDS011;2663;53.588;10.010;2023-07-02T00:09:41;7.30;;;2.60;;
5279;SDS011;2663;53.588;10.010;2023-07-02T00:12:07;8.67;;;2.67;;
5279;SDS011;2663;53.588;10.010;2023-07-02T00:14:34;8.90;;;2.60;;
5279;SDS011;2663;53.588;10.010;2023-07-02T00:17:01;7.57;;;2.80;;
5279;SDS011;2663;53.588;10.010;2023-07-02T00:19:28;5.80;;;2.80;;
5279;SDS011;2663;53.588;10.010;2023-07-02T00:21:55;6.00;;;2.57;;
5279;SDS011;2663;53.588;10.010;2023-07-02T00:24:22;8.30;;;2.33;;
5279;SDS011;2663;53.588;10.010;2023-07-02T00:26:49;8.40;;;2.53;;
5279;SDS011;2663;53.588;10.010;2023-07-02T00:29:15;10.47;;;2.90;;
5279;SDS011;2663;53.588;10.010;2023-07-02T00:31:42;13.27;;;3.30;;
5279;SDS011;2663;53.588;10.010;2023-07-02T00:34:09;10.07;;;2.20;;
5279;SDS011;2663;53.588;10.010;2023-07-02T00:36:35;5.13;;;2.40;;
5279;SDS011;2663;53.588;10.010;2023-07-02T00:39:02;9.30;;;2.70;;
5279;SDS011;2663;53.588;10.010;2023-07-02T00:41:29;8.00;;;2.80;;
5279;SDS011;2663;53.588;10.010;2023-07-02T00:43:56;12.83;;;2.93;;
5279;SDS011;2663;53.588;10.010;2023-07-02T00:46:23;8.27;;;2.93;;
5279;SDS011;2663;53.588;10.010;2023-07-02T00:48:53;12.17;;;3.60;;
5279;SDS011;2663;53.588;10.010;2023-07-02T00:51:21;10.70;;;2.77;;
5279;SDS011;2663;53.588;10.010;2023-07-02T00:53:50;7.23;;;2.80;;
5279;SDS011;2663;53.588;10.010;2023-07-02T00:56:18;10.57;;;4.03;;
5279;SDS011;2663;53.588;10.010;2023-07-02T00:58:45;7.70;;;3.40;;
5279;SDS011;2663;53.588;10.010;2023-07-02T01:01:18;6.37;;;2.60;;
5279;SDS011;2663;53.588;10.010;2023-07-02T01:03:52;9.10;;;3.30;;
5279;SDS011;2663;53.588;10.010;2023-07-02T01:06:32;8.83;;;3.83;;
5279;SDS011;2663;53.588;10.010;2023-07-02T01:09:00;8.37;;;3.50;;
5279;SDS011;2663;53.588;10.010;2023-07-02T01:11:38;7.67;;;3.50;;
5279;SDS011;2663;53.588;10.010;2023-07-02T01:14:15;10.43;;;3.17;;
5279;SDS011;2663;53.588;10.010;2023-07-02T01:16:49;14.43;;;3.80;;
5279;SDS011;2663;53.588;10.010;2023-07-02T01:19:22;4.90;;;2.60;;
5279;SDS011;2663;53.588;10.010;2023-07-02T01:22:11;6.50;;;2.73;;
5279;SDS011;2663;53.588;10.010;2023-07-02T01:24:39;11.23;;;3.00;;
5279;SDS011;2663;53.588;10.010;2023-07-02T01:27:05;16.50;;;3.10;;
5279;SDS011;2663;53.588;10.010;2023-07-02T01:29:33;10.93;;;3.23;;
5279;SDS011;2663;53.588;10.010;2023-07-02T01:32:03;6.83;;;2.87;;
5279;SDS011;2663;53.588;10.010;2023-07-02T01:34:30;11.63;;;3.80;;
5279;SDS011;2663;53.588;10.010;2023-07-02T01:36:57;7.83;;;3.40;;
5279;SDS011;2663;53.588;10.010;2023-07-02T01:39:24;9.50;;;3.30;;
5279;SDS011;2663;53.588;10.010;2023-07-02T01:41:51;6.97;;;3.33;;
5279;SDS011;2663;53.588;10.010;2023-07-02T01:44:19;6.40;;;3.30;;
5279;SDS011;2663;53.588;10.010;2023-07-02T01:46:47;8.10;;;3.60;;
5279;SDS011;2663;53.588;10.010;2023-07-02T01:49:15;13.20;;;3.63;;
5279;SDS011;2663;53.588;10.010;2023-07-02T01:51:49;9.30;;;3.30;;
5279;SDS011;2663;53.588;10.010;2023-07-02T01:54:17;5.07;;;3.20;;
5279;SDS011;2663;53.588;10.010;2023-07-02T01:56:44;7.50;;;3.33;;
5279;SDS011;2663;53.588;10.010;2023-07-02T01:59:11;8.47;;;3.60;;
5279;SDS011;2663;53.588;10.010;2023-07-02T02:01:38;10.90;;;3.27;;
5279;SDS011;2663;53.588;10.010;2023-07-02T02:04:08;9.33;;;3.40;;
5279;SDS011;2663;53.588;10.010;2023-07-02T02:06:36;8.63;;;3.30;;
5279;SDS011;2663;53.588;10.010;2023-07-02T02:09:05;9.97;;;3.53;;
5279;SDS011;2663;53.588;10.010;2023-07-02T02:11:33;7.17;;;3.83;;
5279;SDS011;2663;53.588;10.010;2023-07-02T02:14:00;7.57;;;3.67;;
5279;SDS011;2663;53.588;10.010;2023-07-02T02:16:27;9.20;;;3.50;;
5279;SDS011;2663;53.588;10.010;2023-07-02T02:18:54;4.43;;;3.40;;
5279;SDS011;2663;53.588;10.010;2023-07-02T02:21:21;7.53;;;3.80;;
5279;SDS011;2663;53.588;10.010;2023-07-02T02:23:48;8.80;;;2.97;;
5279;SDS011;2663;53.588;10.010;2023-07-02T02:26:15;9.87;;;3.27;;
5279;SDS011;2663;53.588;10.010;2023-07-02T02:28:42;7.43;;;3.37;;
5279;SDS011;2663;53.588;10.010;2023-07-02T02:31:09;12.40;;;4.10;;
5279;SDS011;2663;53.588;10.010;2023-07-02T02:33:36;9.87;;;3.90;;
5279;SDS011;2663;53.588;10.010;2023-07-02T02:36:02;8.60;;;4.20;;
5279;SDS011;2663;53.588;10.010;2023-07-02T02:38:29;5.03;;;3.47;;
5279;SDS011;2663;53.588;10.010;2023-07-02T02:40:56;7.30;;;3.97;;
5279;SDS011;2663;53.588;10.010;2023-07-02T02:43:23;13.80;;;4.77;;
5279;SDS011;2663;53.588;10.010;2023-07-02T02:45:49;7.07;;;3.90;;
5279;SDS011;2663;53.588;10.010;2023-07-02T02:48:16;7.00;;;4.00;;
5279;SDS011;2663;53.588;10.010;2023-07-02T02:50:42;12.07;;;4.70;;
5279;SDS011;2663;53.588;10.010;2023-07-02T02:53:09;19.03;;;6.70;;
5279;SDS011;2663;53.588;10.010;2023-07-02T02:55:36;10.40;;;3.90;;
5279;SDS011;2663;53.588;10.010;2023-07-02T02:58:03;11.60;;;4.20;;
5279;SDS011;2663;53.588;10.010;2023-07-02T03:00:30;21.97;;;4.80;;
5279;SDS011;2663;53.588;10.010;2023-07-02T03:02:57;19.73;;;4.83;;
5279;SDS011;2663;53.588;10.010;2023-07-02T03:05:25;15.00;;;4.20;;
5279;SDS011;2663;53.588;10.010;2023-07-02T03:07:52;9.87;;;4.30;;
5279;SDS011;2663;53.588;10.010;2023-07-02T03:10:19;8.47;;;4.50;;
5279;SDS011;2663;53.588;10.010;2023-07-02T03:12:47;10.70;;;4.57;;
5279;SDS011;2663;53.588;10.010;2023-07-02T03:15:14;14.47;;;5.60;;
5279;SDS011;2663;53.588;10.010;2023-07-02T03:17:40;15.17;;;5.10;;
5279;SDS011;2663;53.588;10.010;2023-07-02T03:20:07;15.10;;;4.80;;
5279;SDS011;2663;53.588;10.010;2023-07-02T03:22:34;12.70;;;4.63;;
5279;SDS011;2663;53.588;10.010;2023-07-02T03:25:01;15.10;;;4.43;;
5279;SDS011;2663;53.588;10.010;2023-07-02T03:27:28;13.70;;;4.77;;
5279;SDS011;2663;53.588;10.010;2023-07-02T03:29:55;8.63;;;4.40;;
5279;SDS011;2663;53.588;10.010;2023-07-02T03:32:22;14.43;;;4.30;;
5279;SDS011;2663;53.588;10.010;2023-07-02T03:34:49;17.93;;;4.03;;
5279;SDS011;2663;53.588;10.010;2023-07-02T03:37:15;21.10;;;4.73;;
5279;SDS011;2663;53.588;10.010;2023-07-02T03:39:42;17.67;;;5.00;;
5279;SDS011;2663;53.588;10.010;2023-07-02T03:42:08;17.30;;;5.23;;
5279;SDS011;2663;53.588;10.010;2023-07-02T03:44:35;15.07;;;5.10;;
5279;SDS011;2663;53.588;10.010;2023-07-02T03:47:02;11.90;;;4.17;;
5279;SDS011;2663;53.588;10.010;2023-07-02T03:49:29;20.57;;;4.77;;
5279;SDS011;2663;53.588;10.010;2023-07-02T03:51:55;10.97;;;4.87;;
5279;SDS011;2663;53.588;10.010;2023-07-02T03:54:22;27.30;;;5.50;;
5279;SDS011;2663;53.588;10.010;2023-07-02T03:56:49;16.53;;;4.90;;
5279;SDS011;2663;53.588;10.010;2023-07-02T03:59:15;19.23;;;5.37;;
5279;SDS011;2663;53.588;10.010;2023-07-02T04:01:42;11.13;;;5.00;;
5279;SDS011;2663;53.588;10.010;2023-07-02T04:04:09;10.07;;;4.67;;
5279;SDS011;2663;53.588;10.010;2023-07-02T04:06:38;19.57;;;5.57;;
5279;SDS011;2663;53.588;10.010;2023-07-02T04:09:04;22.00;;;5.43;;
5279;SDS011;2663;53.588;10.010;2023-07-02T04:11:31;10.30;;;4.90;;
5279;SDS011;2663;53.588;10.010;2023-07-02T04:13:58;17.63;;;5.30;;
5279;SDS011;2663;53.588;10.010;2023-07-02T04:16:25;8.30;;;3.77;;
5279;SDS011;2663;53.588;10.010;2023-07-02T04:18:51;12.87;;;5.73;;
5279;SDS011;2663;53.588;10.010;2023-07-02T04:21:18;19.90;;;5.50;;
5279;SDS011;2663;53.588;10.010;2023-07-02T04:23:45;20.27;;;5.60;;
5279;SDS011;2663;53.588;10.010;2023-07-02T04:26:12;17.93;;;4.60;;
5279;SDS011;2663;53.588;10.010;2023-07-02T04:28:58;13.67;;;6.20;;
5279;SDS011;2663;53.588;10.010;2023-07-02T04:31:25;20.90;;;5.40;;
5279;SDS011;2663;53.588;10.010;2023-07-02T04:33:53;11.17;;;4.93;;
5279;SDS011;2663;53.588;10.010;2023-07-02T04:36:20;16.23;;;6.00;;
5279;SDS011;2663;53.588;10.010;2023-07-02T04:38:46;12.17;;;5.60;;
5279;SDS011;2663;53.588;10.010;2023-07-02T04:41:13;25.77;;;6.50;;
5279;SDS011;2663;53.588;10.010;2023-07-02T04:43:40;25.13;;;6.90;;
5279;SDS011;2663;53.588;10.010;2023-07-02T04:46:06;21.00;;;6.63;;
5279;SDS011;2663;53.588;10.010;2023-07-02T04:48:34;32.17;;;7.03;;
5279;SDS011;2663;53.588;10.010;2023-07-02T04:51:00;23.67;;;5.67;;
5279;SDS011;2663;53.588;10.010;2023-07-02T04:53:27;18.70;;;6.30;;
5279;SDS011;2663;53.588;10.010;2023-07-02T04:55:54;27.33;;;6.10;;
5279;SDS011;2663;53.588;10.010;2023-07-02T04:58:23;14.70;;;4.83;;
5279;SDS011;2663;53.588;10.010;2023-07-02T05:00:49;16.50;;;6.30;;
5279;SDS011;2663;53.588;10.010;2023-07-02T05:03:16;22.87;;;6.60;;
5279;SDS011;2663;53.588;10.010;2023-07-02T05:05:43;22.40;;;5.90;;
5279;SDS011;2663;53.588;10.010;2023-07-02T05:08:10;25.60;;;7.40;;
5279;SDS011;2663;53.588;10.010;2023-07-02T05:10:37;26.77;;;6.97;;
5279;SDS011;2663;53.588;10.010;2023-07-02T05:13:04;22.13;;;6.00;;
5279;SDS011;2663;53.588;10.010;2023-07-02T05:15:31;21.40;;;6.20;;
5279;SDS011;2663;53.588;10.010;2023-07-02T05:17:57;20.23;;;8.63;;
5279;SDS011;2663;53.588;10.010;2023-07-02T05:20:25;17.73;;;7.13;;
5279;SDS011;2663;53.588;10.010;2023-07-02T05:22:52;25.00;;;8.50;;
5279;SDS011;2663;53.588;10.010;2023-07-02T05:25:19;19.37;;;6.67;;
5279;SDS011;2663;53.588;10.010;2023-07-02T05:27:46;25.93;;;8.33;;
5279;SDS011;2663;53.588;10.010;2023-07-02T05:30:14;21.70;;;6.93;;
5279;SDS011;2663;53.588;10.010;2023-07-02T05:32:41;28.27;;;6.83;;
5279;SDS011;2663;53.588;10.010;2023-07-02T05:35:08;15.83;;;6.00;;
5279;SDS011;2663;53.588;10.010;2023-07-02T05:37:35;24.33;;;6.87;;
5279;SDS011;2663;53.588;10.010;2023-07-02T05:40:02;22.73;;;7.37;;
5279;SDS011;2663;53.588;10.010;2023-07-02T05:42:29;21.53;;;7.43;;
5279;SDS011;2663;53.588;10.010;2023-07-02T05:44:55;19.73;;;6.93;;
5279;SDS011;2663;53.588;10.010;2023-07-02T05:47:22;26.50;;;7.30;;
5279;SDS011;2663;53.588;10.010;2023-07-02T05:49:49;29.63;;;9.30;;
5279;SDS011;2663;53.588;10.010;2023-07-02T05:52:16;29.07;;;7.30;;
5279;SDS011;2663;53.588;10.010;2023-07-02T05:54:42;26.70;;;7.77;;
5279;SDS011;2663;53.588;10.010;2023-07-02T05:57:09;18.23;;;6.43;;
5279;SDS011;2663;53.588;10.010;2023-07-02T05:59:37;21.40;;;6.90;;
5279;SDS011;2663;53.588;10.010;2023-07-02T06:02:04;27.77;;;9.03;;
5279;SDS011;2663;53.588;10.010;2023-07-02T06:04:30;23.53;;;7.00;;
5279;SDS011;2663;53.588;10.010;2023-07-02T06:06:57;28.20;;;8.63;;
5279;SDS011;2663;53.588;10.010;2023-07-02T06:09:24;20.77;;;7.63;;
5279;SDS011;2663;53.588;10.010;2023-07-02T06:11:51;33.60;;;7.40;;
5279;SDS011;2663;53.588;10.010;2023-07-02T06:14:17;31.30;;;8.20;;
5279;SDS011;2663;53.588;10.010;2023-07-02T06:16:44;25.93;;;7.50;;
5279;SDS011;2663;53.588;10.010;2023-07-02T06:19:11;31.87;;;8.37;;
5279;SDS011;2663;53.588;10.010;2023-07-02T06:21:38;26.67;;;8.00;;
5279;SDS011;2663;53.588;10.010;2023-07-02T06:24:05;46.50;;;8.77;;
5279;SDS011;2663;53.588;10.010;2023-07-02T06:26:32;34.30;;;7.20;;
5279;SDS011;2663;53.588;10.010;2023-07-02T06:28:58;36.00;;;7.87;;
5279;SDS011;2663;53.588;10.010;2023-07-02T06:31:25;33.63;;;9.67;;
5279;SDS011;2663;53.588;10.010;2023-07-02T06:33:52;28.83;;;8.43;;
5279;SDS011;2663;53.588;10.010;2023-07-02T06:36:19;28.57;;;9.10;;
5279;SDS011;2663;53.588;10.010;2023-07-02T06:38:46;28.23;;;9.57;;
5279;SDS011;2663;53.588;10.010;2023-07-02T06:41:13;28.83;;;8.43;;
5279;SDS011;2663;53.588;10.010;2023-07-02T06:43:41;29.13;;;8.80;;
5279;SDS011;2663;53.588;10.010;2023-07-02T06:46:10;31.37;;;8.33;;
5279;SDS011;2663;53.588;10.010;2023-07-02T06:48:37;34.27;;;9.70;;
5279;SDS011;2663;53.588;10.010;2023-07-02T06:51:04;24.87;;;8.63;;
5279;SDS011;2663;53.588;10.010;2023-07-02T06:53:30;27.10;;;6.97;;
5279;SDS011;2663;53.588;10.010;2023-07-02T06:55:57;28.03;;;8.10;;
5279;SDS011;2663;53.588;10.010;2023-07-02T06:58:24;30.53;;;8.23;;
5279;SDS011;2663;53.588;10.010;2023-07-02T07:00:51;40.60;;;8.63;;
5279;SDS011;2663;53.588;10.010;2023-07-02T07:03:18;28.60;;;9.00;;
5279;SDS011;2663;53.588;10.010;2023-07-02T07:05:44;26.13;;;7.13;;
5279;SDS011;2663;53.588;10.010;2023-07-02T07:08:11;34.30;;;8.30;;
5279;SDS011;2663;53.588;10.010;2023-07-02T07:10:38;28.90;;;10.13;;
5279;SDS011;2663;53.588;10.010;2023-07-02T07:13:06;36.53;;;8.53;;
5279;SDS011;2663;53.588;10.010;2023-07-02T07:15:35;29.13;;;8.40;;
5279;SDS011;2663;53.588;10.010;2023-07-02T07:18:02;34.03;;;9.60;;
5279;SDS011;2663;53.588;10.010;2023-07-02T07:20:30;31.53;;;9.00;;
5279;SDS011;2663;53.588;10.010;2023-07-02T07:22:57;25.37;;;7.33;;
5279;SDS011;2663;53.588;10.010;2023-07-02T07:25:24;41.47;;;9.40;;
5279;SDS011;2663;53.588;10.010;2023-07-02T07:27:51;22.73;;;6.77;;
5279;SDS011;2663;53.588;10.010;2023-07-02T07:30:18;33.37;;;9.60;;
5279;SDS011;2663;53.588;10.010;2023-07-02T07:32:49;24.13;;;7.20;;
5279;SDS011;2663;53.588;10.010;2023-07-02T07:35:17;31.50;;;8.00;;
5279;SDS011;2663;53.588;10.010;2023-07-02T07:37:44;31.67;;;8.30;;
5279;SDS011;2663;53.588;10.010;2023-07-02T07:40:11;19.97;;;5.90;;
5279;SDS011;2663;53.588;10.010;2023-07-02T07:42:38;23.50;;;6.10;;
5279;SDS011;2663;53.588;10.010;2023-07-02T07:45:06;29.73;;;9.13;;
5279;SDS011;2663;53.588;10.010;2023-07-02T07:47:33;26.60;;;7.30;;
5279;SDS011;2663;53.588;10.010;2023-07-02T07:50:00;24.30;;;8.10;;
5279;SDS011;2663;53.588;10.010;2023-07-02T07:52:26;23.93;;;7.43;;
5279;SDS011;2663;53.588;10.010;2023-07-02T07:54:53;38.20;;;9.37;;
5279;SDS011;2663;53.588;10.010;2023-07-02T07:57:20;33.27;;;7.83;;
5279;SDS011;2663;53.588;10.010;2023-07-02T07:59:47;32.27;;;8.63;;
5279;SDS011;2663;53.588;10.010;2023-07-02T08:02:13;19.10;;;7.43;;
5279;SDS011;2663;53.588;10.010;2023-07-02T08:04:40;22.20;;;8.23;;
5279;SDS011;2663;53.588;10.010;2023-07-02T08:07:07;19.00;;;6.90;;
5279;SDS011;2663;53.588;10.010;2023-07-02T08:09:35;23.63;;;7.83;;
5279;SDS011;2663;53.588;10.010;2023-07-02T08:12:02;20.17;;;8.17;;
5279;SDS011;2663;53.588;10.010;2023-07-02T08:14:29;15.20;;;5.97;;
5279;SDS011;2663;53.588;10.010;2023-07-02T08:16:55;16.33;;;4.63;;
5279;SDS011;2663;53.588;10.010;2023-07-02T08:19:22;16.13;;;6.30;;
5279;SDS011;2663;53.588;10.010;2023-07-02T08:21:52;19.00;;;7.20;;
5279;SDS011;2663;53.588;10.010;2023-07-02T08:24:19;23.43;;;6.50;;
5279;SDS011;2663;53.588;10.010;2023-07-02T08:26:46;23.00;;;7.57;;
5279;SDS011;2663;53.588;10.010;2023-07-02T08:29:15;17.37;;;7.13;;
5279;SDS011;2663;53.588;10.010;2023-07-02T08:31:42;18.70;;;6.63;;
5279;SDS011;2663;53.588;10.010;2023-07-02T08:34:09;12.43;;;5.90;;
5279;SDS011;2663;53.588;10.010;2023-07-02T08:36:36;16.90;;;6.70;;
5279;SDS011;2663;53.588;10.010;2023-07-02T08:39:03;29.57;;;5.47;;
5279;SDS011;2663;53.588;10.010;2023-07-02T08:41:30;27.80;;;7.70;;
5279;SDS011;2663;53.588;10.010;2023-07-02T08:44:10;23.30;;;5.77;;
5279;SDS011;2663;53.588;10.010;2023-07-02T08:46:39;16.93;;;6.13;;
5279;SDS011;2663;53.588;10.010;2023-07-02T08:49:07;18.90;;;4.87;;
5279;SDS011;2663;53.588;10.010;2023-07-02T08:51:34;12.53;;;6.00;;
5279;SDS011;2663;53.588;10.010;2023-07-02T08:54:02;13.63;;;4.77;;
5279;SDS011;2663;53.588;10.010;2023-07-02T08:56:29;14.43;;;4.80;;
5279;SDS011;2663;53.588;10.010;2023-07-02T08:58:56;12.63;;;5.07;;
5279;SDS011;2663;53.588;10.010;2023-07-02T09:01:23;10.80;;;3.93;;
5279;SDS011;2663;53.588;10.010;2023-07-02T09:03:50;14.80;;;5.03;;
5279;SDS011;2663;53.588;10.010;2023-07-02T09:06:17;13.77;;;5.10;;
5279;SDS011;2663;53.588;10.010;2023-07-02T09:08:45;11.80;;;4.47;;
5279;SDS011;2663;53.588;10.010;2023-07-02T09:11:13;11.53;;;4.83;;
5279;SDS011;2663;53.588;10.010;2023-07-02T09:13:44;15.07;;;4.30;;
5279;SDS011;2663;53.588;10.010;2023-07-02T09:16:22;21.70;;;5.60;;
5279;SDS011;2663;53.588;10.010;2023-07-02T09:18:56;9.83;;;3.33;;
5279;SDS011;2663;53.588;10.010;2023-07-02T09:24:16;17.47;;;5.20;;
5279;SDS011;2663;53.588;10.010;2023-07-02T09:26:50;12.97;;;4.50;;
5279;SDS011;2663;53.588;10.010;2023-07-02T09:29:27;25.70;;;5.27;;
5279;SDS011;2663;53.588;10.010;2023-07-02T09:32:02;17.13;;;5.10;;
5279;SDS011;2663;53.588;10.010;2023-07-02T09:34:34;16.27;;;5.83;;
5279;SDS011;2663;53.588;10.010;2023-07-02T09:37:02;23.00;;;5.60;;
5279;SDS011;2663;53.588;10.010;2023-07-02T09:39:32;28.03;;;6.50;;
5279;SDS011;2663;53.588;10.010;2023-07-02T09:42:00;27.17;;;5.90;;
5279;SDS011;2663;53.588;10.010;2023-07-02T09:44:31;27.03;;;6.00;;
5279;SDS011;2663;53.588;10.010;2023-07-02T09:47:03;19.93;;;6.60;;
5279;SDS011;2663;53.588;10.010;2023-07-02T09:52:07;19.30;;;5.40;;
5279;SDS011;2663;53.588;10.010;2023-07-02T09:54:38;31.07;;;6.90;;
5279;SDS011;2663;53.588;10.010;2023-07-02T09:57:05;15.67;;;5.20;;
5279;SDS011;2663;53.588;10.010;2023-07-02T09:59:33;22.83;;;6.10;;
5279;SDS011;2663;53.588;10.010;2023-07-02T10:02:00;14.23;;;5.07;;
5279;SDS011;2663;53.588;10.010;2023-07-02T10:04:27;10.80;;;4.30;;
5279;SDS011;2663;53.588;10.010;2023-07-02T10:06:55;15.90;;;6.07;;
5279;SDS011;2663;53.588;10.010;2023-07-02T10:12:18;11.37;;;3.30;;
5279;SDS011;2663;53.588;10.010;2023-07-02T10:14:50;11.47;;;3.47;;
5279;SDS011;2663;53.588;10.010;2023-07-02T10:17:26;12.83;;;3.73;;
5279;SDS011;2663;53.588;10.010;2023-07-02T10:19:55;16.20;;;4.30;;
5279;SDS011;2663;53.588;10.010;2023-07-02T10:22:23;11.50;;;4.23;;
5279;SDS011;2663;53.588;10.010;2023-07-02T10:27:36;12.40;;;4.70;;
5279;SDS011;2663;53.588;10.010;2023-07-02T10:30:04;16.77;;;5.60;;
5279;SDS011;2663;53.588;10.010;2023-07-02T10:32:33;23.30;;;3.73;;
5279;SDS011;2663;53.588;10.010;2023-07-02T10:35:24;12.40;;;5.03;;
5279;SDS011;2663;53.588;10.010;2023-07-02T10:37:47;17.97;;;5.17;;
5279;SDS011;2663;53.588;10.010;2023-07-02T10:40:14;14.13;;;4.10;;
5279;SDS011;2663;53.588;10.010;2023-07-02T10:42:45;9.13;;;4.17;;
5279;SDS011;2663;53.588;10.010;2023-07-02T10:45:13;10.47;;;4.53;;
5279;SDS011;2663;53.588;10.010;2023-07-02T10:47:40;17.30;;;5.20;;
5279;SDS011;2663;53.588;10.010;2023-07-02T10:50:17;17.73;;;4.10;;
5279;SDS011;2663;53.588;10.010;2023-07-02T10:52:46;14.37;;;5.40;;
5279;SDS011;2663;53.588;10.010;2023-07-02T10:55:23;18.93;;;4.60;;
5279;SDS011;2663;53.588;10.010;2023-07-02T10:58:01;12.20;;;3.63;;
5279;SDS011;2663;53.588;10.010;2023-07-02T11:00:48;18.27;;;4.57;;
5279;SDS011;2663;53.588;10.010;2023-07-02T11:03:20;17.50;;;5.60;;
5279;SDS011;2663;53.588;10.010;2023-07-02T11:05:48;13.30;;;4.00;;
5279;SDS011;2663;53.588;10.010;2023-07-02T11:08:16;13.53;;;3.90;;
5279;SDS011;2663;53.588;10.010;2023-07-02T11:10:44;9.20;;;4.60;;
5279;SDS011;2663;53.588;10.010;2023-07-02T11:13:14;15.17;;;4.83;;
5279;SDS011;2663;53.588;10.010;2023-07-02T11:15:42;15.17;;;3.93;;
5279;SDS011;2663;53.588;10.010;2023-07-02T11:18:12;16.67;;;3.97;;
5279;SDS011;2663;53.588;10.010;2023-07-02T11:20:41;15.23;;;4.10;;
5279;SDS011;2663;53.588;10.010;2023-07-02T11:23:19;22.53;;;3.93;;
5279;SDS011;2663;53.588;10.010;2023-07-02T11:25:58;6.17;;;2.87;;
5279;SDS011;2663;53.588;10.010;2023-07-02T11:28:29;17.73;;;3.43;;
5279;SDS011;2663;53.588;10.010;2023-07-02T11:30:57;15.60;;;3.73;;
5279;SDS011;2663;53.588;10.010;2023-07-02T11:33:35;13.00;;;3.90;;
5279;SDS011;2663;53.588;10.010;2023-07-02T11:36:02;17.70;;;4.17;;
5279;SDS011;2663;53.588;10.010;2023-07-02T11:38:30;7.60;;;2.70;;
5279;SDS011;2663;53.588;10.010;2023-07-02T11:40:56;13.60;;;3.60;;
5279;SDS011;2663;53.588;10.010;2023-07-02T11:43:23;9.03;;;3.20;;
5279;SDS011;2663;53.588;10.010;2023-07-02T11:45:51;18.53;;;3.60;;
5279;SDS011;2663;53.588;10.010;2023-07-02T11:48:17;15.13;;;3.17;;
5279;SDS011;2663;53.588;10.010;2023-07-02T11:50:44;9.07;;;3.07;;
5279;SDS011;2663;53.588;10.010;2023-07-02T11:53:11;12.90;;;3.23;;
5279;SDS011;2663;53.588;10.010;2023-07-02T11:55:38;26.03;;;3.43;;
5279;SDS011;2663;53.588;10.010;2023-07-02T11:58:05;8.63;;;2.70;;
5279;SDS011;2663;53.588;10.010;2023-07-02T12:00:32;10.20;;;3.40;;
5279;SDS011;2663;53.588;10.010;2023-07-02T12:02:58;10.17;;;3.23;;
5279;SDS011;2663;53.588;10.010;2023-07-02T12:05:25;10.27;;;3.20;;
5279;SDS011;2663;53.588;10.010;2023-07-02T12:07:52;5.20;;;2.43;;
5279;SDS011;2663;53.588;10.010;2023-07-02T12:10:19;10.33;;;3.50;;
5279;SDS011;2663;53.588;10.010;2023-07-02T12:12:45;13.43;;;3.43;;
5279;SDS011;2663;53.588;10.010;2023-07-02T12:15:12;22.53;;;4.00;;
5279;SDS011;2663;53.588;10.010;2023-07-02T12:17:39;7.60;;;2.60;;
5279;SDS011;2663;53.588;10.010;2023-07-02T12:20:05;9.50;;;3.50;;
5279;SDS011;2663;53.588;10.010;2023-07-02T12:22:32;22.40;;;4.70;;
5279;SDS011;2663;53.588;10.010;2023-07-02T12:24:59;16.57;;;3.50;;
5279;SDS011;2663;53.588;10.010;2023-07-02T12:27:26;10.43;;;3.07;;
5279;SDS011;2663;53.588;10.010;2023-07-02T12:29:53;15.83;;;3.30;;
5279;SDS011;2663;53.588;10.010;2023-07-02T12:32:20;10.80;;;3.47;;
5279;SDS011;2663;53.588;10.010;2023-07-02T12:34:47;6.60;;;2.73;;
5279;SDS011;2663;53.588;10.010;2023-07-02T12:37:14;14.13;;;3.33;;
5279;SDS011;2663;53.588;10.010;2023-07-02T12:39:43;11.00;;;3.03;;
5279;SDS011;2663;53.588;10.010;2023-07-02T12:42:10;10.30;;;3.07;;
5279;SDS011;2663;53.588;10.010;2023-07-02T12:44:37;5.57;;;3.30;;
5279;SDS011;2663;53.588;10.010;2023-07-02T12:47:04;7.40;;;2.90;;
5279;SDS011;2663;53.588;10.010;2023-07-02T12:49:31;14.23;;;2.97;;
5279;SDS011;2663;53.588;10.010;2023-07-02T12:51:58;18.33;;;3.13;;
5279;SDS011;2663;53.588;10.010;2023-07-02T12:54:24;14.43;;;2.90;;
5279;SDS011;2663;53.588;10.010;2023-07-02T12:56:52;5.60;;;2.33;;
5279;SDS011;2663;53.588;10.010;2023-07-02T12:59:19;8.53;;;3.73;;
5279;SDS011;2663;53.588;10.010;2023-07-02T13:01:46;8.70;;;2.87;;
5279;SDS011;2663;53.588;10.010;2023-07-02T13:04:12;5.50;;;2.60;;
5279;SDS011;2663;53.588;10.010;2023-07-02T13:06:41;9.20;;;3.07;;
5279;SDS011;2663;53.588;10.010;2023-07-02T13:09:08;14.20;;;2.90;;
5279;SDS011;2663;53.588;10.010;2023-07-02T13:11:34;10.40;;;2.60;;
5279;SDS011;2663;53.588;10.010;2023-07-02T13:14:01;9.30;;;1.93;;
5279;SDS011;2663;53.588;10.010;2023-07-02T13:16:28;6.70;;;2.37;;
5279;SDS011;2663;53.588;10.010;2023-07-02T13:18:56;14.40;;;2.80;;
5279;SDS011;2663;53.588;10.010;2023-07-02T13:21:23;8.60;;;2.20;;
5279;SDS011;2663;53.588;10.010;2023-07-02T13:23:49;7.63;;;2.30;;
5279;SDS011;2663;53.588;10.010;2023-07-02T13:26:16;13.63;;;1.67;;
5279;SDS011;2663;53.588;10.010;2023-07-02T13:28:43;13.67;;;3.07;;
5279;SDS011;2663;53.588;10.010;2023-07-02T13:31:13;9.37;;;2.70;;
5279;SDS011;2663;53.588;10.010;2023-07-02T13:33:40;12.40;;;2.43;;
5279;SDS011;2663;53.588;10.010;2023-07-02T13:36:07;13.07;;;2.93;;
5279;SDS011;2663;53.588;10.010;2023-07-02T13:38:34;12.20;;;2.73;;
5279;SDS011;2663;53.588;10.010;2023-07-02T13:41:01;5.37;;;2.57;;
5279;SDS011;2663;53.588;10.010;2023-07-02T13:43:28;11.33;;;2.77;;
5279;SDS011;2663;53.588;10.010;2023-07-02T13:45:54;7.80;;;2.13;;
5279;SDS011;2663;53.588;10.010;2023-07-02T13:48:21;4.30;;;2.30;;
5279;SDS011;2663;53.588;10.010;2023-07-02T13:50:50;7.30;;;2.20;;
5279;SDS011;2663;53.588;10.010;2023-07-02T13:53:17;18.07;;;2.70;;
5279;SDS011;2663;53.588;10.010;2023-07-02T13:55:44;9.97;;;2.13;;
5279;SDS011;2663;53.588;10.010;2023-07-02T13:58:12;7.30;;;3.20;;
5279;SDS011;2663;53.588;10.010;2023-07-02T14:00:42;5.23;;;2.13;;
5279;SDS011;2663;53.588;10.010;2023-07-02T14:03:09;9.93;;;2.70;;
5279;SDS011;2663;53.588;10.010;2023-07-02T14:05:36;11.50;;;2.53;;
5279;SDS011;2663;53.588;10.010;2023-07-02T14:08:03;5.00;;;2.73;;
5279;SDS011;2663;53.588;10.010;2023-07-02T14:10:29;3.90;;;1.87;;
5279;SDS011;2663;53.588;10.010;2023-07-02T14:12:56;8.53;;;2.20;;
5279;SDS011;2663;53.588;10.010;2023-07-02T14:15:24;6.30;;;3.00;;
5279;SDS011;2663;53.588;10.010;2023-07-02T14:17:51;7.23;;;3.00;;
5279;SDS011;2663;53.588;10.010;2023-07-02T14:20:17;15.57;;;2.57;;
5279;SDS011;2663;53.588;10.010;2023-07-02T14:22:45;14.90;;;3.13;;
5279;SDS011;2663;53.588;10.010;2023-07-02T14:25:14;10.37;;;3.07;;
5279;SDS011;2663;53.588;10.010;2023-07-02T14:27:57;9.67;;;2.10;;
5279;SDS011;2663;53.588;10.010;2023-07-02T14:30:24;12.80;;;2.80;;
5279;SDS011;2663;53.588;10.010;2023-07-02T14:32:50;7.50;;;2.53;;
5279;SDS011;2663;53.588;10.010;2023-07-02T14:35:17;7.47;;;1.97;;
5279;SDS011;2663;53.588;10.010;2023-07-02T14:37:48;5.57;;;2.53;;
5279;SDS011;2663;53.588;10.010;2023-07-02T14:40:14;10.13;;;2.60;;
5279;SDS011;2663;53.588;10.010;2023-07-02T14:42:41;18.57;;;2.70;;
5279;SDS011;2663;53.588;10.010;2023-07-02T14:45:08;9.87;;;3.03;;
5279;SDS011;2663;53.588;10.010;2023-07-02T14:47:35;5.57;;;2.53;;
5279;SDS011;2663;53.588;10.010;2023-07-02T14:50:02;8.07;;;2.70;;
5279;SDS011;2663;53.588;10.010;2023-07-02T14:52:29;5.17;;;2.03;;
5279;SDS011;2663;53.588;10.010;2023-07-02T14:54:56;8.60;;;2.53;;
5279;SDS011;2663;53.588;10.010;2023-07-02T14:57:25;9.03;;;2.33;;
5279;SDS011;2663;53.588;10.010;2023-07-02T14:59:52;10.33;;;3.57;;
5279;SDS011;2663;53.588;10.010;2023-07-02T15:02:19;4.27;;;2.77;;
5279;SDS011;2663;53.588;10.010;2023-07-02T15:04:46;9.10;;;2.50;;
5279;SDS011;2663;53.588;10.010;2023-07-02T15:07:13;12.50;;;2.80;;